createdAt,value
2022-08-07T00:00:31.352Z,27.25
2022-08-07T00:02:59.473Z,26.75
2022-08-07T00:05:29.636Z,28.00
2022-08-07T00:07:58.194Z,28.00
2022-08-07T00:10:31.034Z,27.00
2022-08-07T00:13:02.184Z,27.00
2022-08-07T00:15:37.644Z,24.00
2022-08-07T00:18:19.889Z,27.25
2022-08-07T00:20:53.970Z,27.25
2022-08-07T00:23:22.280Z,27.25
2022-08-07T00:25:52.553Z,27.50
2022-08-07T00:28:33.254Z,27.00
2022-08-07T00:31:05.938Z,25.25
2022-08-07T00:33:35.091Z,28.80
2022-08-07T00:36:05.400Z,27.80
2022-08-07T00:38:34.259Z,27.20
2022-08-07T00:41:02.366Z,29.60
2022-08-07T00:44:00.920Z,29.20
2022-08-07T00:46:18.466Z,28.60
2022-08-07T00:48:49.899Z,30.00
2022-08-07T00:51:21.415Z,25.80
2022-08-07T00:53:55.339Z,28.00
2022-08-07T00:56:30.375Z,28.20
2022-08-07T00:59:02.188Z,28.50
2022-08-07T01:01:41.251Z,24.00
2022-08-07T01:04:12.489Z,29.20
2022-08-07T01:06:56.208Z,28.00
2022-08-07T01:10:04.845Z,28.20
2022-08-07T01:12:29.839Z,29.00
2022-08-07T01:15:00.970Z,27.00
2022-08-07T01:17:31.311Z,29.00
2022-08-07T01:20:02.962Z,28.20
2022-08-07T01:22:34.111Z,28.00
2022-08-07T01:25:39.940Z,27.80
2022-08-07T01:27:52.614Z,27.80
2022-08-07T01:30:27.125Z,28.00
2022-08-07T01:32:58.292Z,28.00
2022-08-07T01:35:52.739Z,26.20
2022-08-07T01:38:24.622Z,26.75
2022-08-07T01:40:56.041Z,28.50
2022-08-07T01:43:25.838Z,28.00
2022-08-07T01:45:54.911Z,28.00
2022-08-07T01:48:30.182Z,27.25
2022-08-07T01:51:24.258Z,30.00
2022-08-07T01:54:09.642Z,29.00
2022-08-07T01:56:49.206Z,30.00
2022-08-07T01:59:23.148Z,28.20
2022-08-07T02:02:01.966Z,27.50
2022-08-07T02:04:37.941Z,29.00
2022-08-07T02:07:13.545Z,28.00
2022-08-07T02:09:58.506Z,28.00
2022-08-07T02:12:31.152Z,28.25
2022-08-07T02:15:06.009Z,25.25
2022-08-07T02:17:41.567Z,26.40
2022-08-07T02:20:23.542Z,26.00
2022-08-07T02:22:57.621Z,28.40
2022-08-07T02:25:47.219Z,26.80
2022-08-07T02:28:24.379Z,24.00
2022-08-07T02:30:55.432Z,27.00
2022-08-07T02:33:24.363Z,23.00
2022-08-07T02:36:29.576Z,23.00
2022-08-07T02:38:56.996Z,23.50
2022-08-07T02:41:33.456Z,25.75
2022-08-07T02:44:06.406Z,24.00
2022-08-07T02:46:36.771Z,24.00
2022-08-07T02:49:06.768Z,26.00
2022-08-07T02:51:49.768Z,22.00
2022-08-07T02:54:19.245Z,25.25
2022-08-07T02:56:50.027Z,24.00
2022-08-07T02:59:23.957Z,26.00
2022-08-07T03:01:58.119Z,24.25
2022-08-07T03:04:31.572Z,23.00
2022-08-07T03:07:07.075Z,20.00
2022-08-07T03:09:42.280Z,25.25
2022-08-07T03:12:14.244Z,24.00
2022-08-07T03:14:53.102Z,29.75
2022-08-07T03:17:22.260Z,24.75
2022-08-07T03:19:52.938Z,24.50
2022-08-07T03:22:29.625Z,24.00
2022-08-07T03:25:00.200Z,23.00
2022-08-07T03:27:59.731Z,23.50
2022-08-07T03:30:24.442Z,23.33
2022-08-07T03:32:58.310Z,20.50
2022-08-07T03:35:43.960Z,24.00
2022-08-07T03:38:21.416Z,22.00
2022-08-07T03:41:01.529Z,23.50
2022-08-07T03:43:36.064Z,22.25
2022-08-07T03:46:10.412Z,22.50
2022-08-07T03:49:02.636Z,21.25
2022-08-07T03:51:47.092Z,21.00
2022-08-07T03:54:36.538Z,22.50
2022-08-07T03:57:08.539Z,22.00
2022-08-07T03:59:46.723Z,20.00
2022-08-07T04:02:29.322Z,19.00
2022-08-07T04:04:58.485Z,20.75
2022-08-07T04:07:36.225Z,21.00
2022-08-07T04:10:19.651Z,21.00
2022-08-07T04:12:50.433Z,20.50
2022-08-07T04:15:20.497Z,22.00
2022-08-07T04:18:31.075Z,20.50
2022-08-07T04:20:43.094Z,20.00
2022-08-07T04:23:22.941Z,21.00
2022-08-07T04:26:11.318Z,20.25
2022-08-07T04:28:41.445Z,20.75
2022-08-07T04:31:19.730Z,20.00
2022-08-07T04:33:56.502Z,16.00
2022-08-07T04:36:26.496Z,18.75
2022-08-07T04:38:56.376Z,19.50
2022-08-07T04:41:26.894Z,19.00
2022-08-07T04:44:11.836Z,20.00
2022-08-07T04:47:04.174Z,18.50
2022-08-07T04:49:57.589Z,21.00
2022-08-07T04:52:32.342Z,18.00
2022-08-07T04:55:15.203Z,18.75
2022-08-07T04:58:14.586Z,14.75
2022-08-07T05:00:49.079Z,17.50
2022-08-07T05:04:00.501Z,17.75
2022-08-07T05:06:16.360Z,18.75
2022-08-07T05:09:00.624Z,18.50
2022-08-07T05:11:57.716Z,19.00
2022-08-07T05:14:52.508Z,17.75
2022-08-07T05:17:17.513Z,18.50
2022-08-07T05:20:09.644Z,18.00
2022-08-07T05:22:39.602Z,19.00
2022-08-07T05:25:11.699Z,16.00
2022-08-07T05:28:16.768Z,17.50
2022-08-07T05:30:43.744Z,16.75
2022-08-07T05:33:18.087Z,18.75
2022-08-07T05:35:51.618Z,17.00
2022-08-07T05:39:00.142Z,17.75
2022-08-07T05:41:14.523Z,16.50
2022-08-07T05:44:01.226Z,16.50
2022-08-07T05:46:36.115Z,17.25
2022-08-07T05:49:11.954Z,14.50
2022-08-07T05:51:46.439Z,16.25
2022-08-07T05:54:30.349Z,16.50
2022-08-07T05:57:09.483Z,16.00
2022-08-07T05:59:57.231Z,18.25
2022-08-07T06:02:30.784Z,16.00
2022-08-07T06:05:06.001Z,18.00
2022-08-07T06:08:13.834Z,17.00
2022-08-07T06:10:26.885Z,17.00
2022-08-07T06:12:55.139Z,17.00
2022-08-07T06:15:39.149Z,16.25
2022-08-07T06:18:13.893Z,17.75
2022-08-07T06:20:49.599Z,16.00
2022-08-07T06:23:46.338Z,18.00
2022-08-07T06:26:13.080Z,16.75
2022-08-07T06:28:52.974Z,10.75
2022-08-07T06:31:24.274Z,14.00
2022-08-07T06:34:11.231Z,16.75
2022-08-07T06:36:41.900Z,14.00
2022-08-07T06:40:15.575Z,14.50
2022-08-07T06:42:06.324Z,16.50
2022-08-07T06:44:58.100Z,15.00
2022-08-07T06:47:26.972Z,15.00
2022-08-07T06:49:58.495Z,15.75
2022-08-07T06:52:35.683Z,14.25
2022-08-07T06:55:31.567Z,14.00
2022-08-07T06:58:01.857Z,14.75
2022-08-07T07:00:38.193Z,14.75
2022-08-07T07:03:13.581Z,16.50
2022-08-07T07:06:05.103Z,15.75
2022-08-07T07:08:33.284Z,16.00
2022-08-07T07:11:13.536Z,17.00
2022-08-07T07:13:58.264Z,7.75
2022-08-07T07:16:32.080Z,13.75
2022-08-07T07:19:41.024Z,14.00
2022-08-07T07:22:05.014Z,17.75
2022-08-07T07:24:58.489Z,15.25
2022-08-07T07:27:35.675Z,16.50
2022-08-07T07:30:32.477Z,15.00
2022-08-07T07:33:07.682Z,16.00
2022-08-07T07:35:43.941Z,14.00
2022-08-07T07:38:26.286Z,14.50
2022-08-07T07:40:58.845Z,13.50
2022-08-07T07:44:14.218Z,14.00
2022-08-07T07:46:40.216Z,15.25
2022-08-07T07:50:32.720Z,14.25
2022-08-07T07:52:03.410Z,13.00
2022-08-07T07:54:31.993Z,15.00
2022-08-07T07:57:03.092Z,14.25
2022-08-07T07:59:52.592Z,14.25
2022-08-07T08:02:33.691Z,16.00
2022-08-07T08:05:04.268Z,15.00
2022-08-07T08:07:35.982Z,12.50
2022-08-07T08:10:14.843Z,10.50
2022-08-07T08:13:00.583Z,14.00
2022-08-07T08:15:57.545Z,15.25
2022-08-07T08:18:24.718Z,14.75
2022-08-07T08:20:54.049Z,13.25
2022-08-07T08:23:40.530Z,16.25
2022-08-07T08:26:26.640Z,15.00
2022-08-07T08:28:57.253Z,12.50
2022-08-07T08:31:58.428Z,15.50
2022-08-07T08:34:27.263Z,16.00
2022-08-07T08:36:58.422Z,16.00
2022-08-07T08:39:38.909Z,13.75
2022-08-07T08:42:10.938Z,14.00
2022-08-07T08:44:45.823Z,12.00
2022-08-07T08:47:25.245Z,13.75
2022-08-07T08:50:02.487Z,14.00
2022-08-07T08:52:35.961Z,15.75
2022-08-07T08:55:21.119Z,15.50
2022-08-07T08:58:08.582Z,15.00
2022-08-07T09:00:43.422Z,12.00
2022-08-07T09:03:22.650Z,14.50
2022-08-07T09:06:12.863Z,14.75
2022-08-07T09:08:55.669Z,13.50
2022-08-07T09:11:50.515Z,14.25
2022-08-07T09:14:28.665Z,13.50
2022-08-07T09:17:01.332Z,14.00
2022-08-07T09:19:51.355Z,12.00
2022-08-07T09:24:30.510Z,13.00
2022-08-07T09:25:24.417Z,14.50
2022-08-07T09:28:00.459Z,11.00
2022-08-07T09:30:36.831Z,13.00
2022-08-07T09:33:16.501Z,13.00
2022-08-07T09:36:02.815Z,13.25
2022-08-07T09:38:38.648Z,12.25
2022-08-07T09:41:17.849Z,11.25
2022-08-07T09:44:05.660Z,11.75
2022-08-07T09:47:51.091Z,13.00
2022-08-07T09:50:01.835Z,10.00
2022-08-07T09:52:38.400Z,12.25
2022-08-07T09:55:29.055Z,12.00
2022-08-07T09:58:11.863Z,12.50
2022-08-07T10:00:52.388Z,12.75
2022-08-07T10:04:06.048Z,12.75
2022-08-07T10:06:41.341Z,10.00
2022-08-07T10:09:59.239Z,10.00
2022-08-07T10:12:41.079Z,11.00
2022-08-07T10:15:37.882Z,9.00
2022-08-07T10:18:26.353Z,11.75
2022-08-07T10:21:03.793Z,10.25
2022-08-07T10:24:04.787Z,10.50
2022-08-07T10:26:51.595Z,12.00
2022-08-07T10:29:45.995Z,11.75
2022-08-07T10:32:36.902Z,12.00
2022-08-07T10:35:16.646Z,13.00
2022-08-07T10:38:09.509Z,11.00
2022-08-07T10:40:46.570Z,12.25
2022-08-07T10:43:19.330Z,13.00
2022-08-07T10:45:59.860Z,15.00
2022-08-07T10:48:36.264Z,9.00
2022-08-07T10:51:07.677Z,9.00
2022-08-07T10:53:48.856Z,10.00
2022-08-07T10:56:31.565Z,10.25
2022-08-07T10:59:21.168Z,5.25
2022-08-07T11:02:05.151Z,10.00
2022-08-07T11:04:47.382Z,10.00
2022-08-07T11:07:56.267Z,10.50
2022-08-07T11:10:17.619Z,9.00
2022-08-07T11:13:01.783Z,10.50
2022-08-07T11:15:35.562Z,11.00
2022-08-07T11:18:06.508Z,9.25
2022-08-07T11:20:42.974Z,12.00
2022-08-07T11:23:20.724Z,12.00
2022-08-07T11:26:06.449Z,10.00
2022-08-07T11:28:37.268Z,13.50
2022-08-07T11:31:11.410Z,11.25
2022-08-07T11:33:53.831Z,9.75
2022-08-07T11:36:35.852Z,11.00
2022-08-07T11:39:07.489Z,12.00
2022-08-07T11:42:01.667Z,10.00
2022-08-07T11:44:34.373Z,11.50
2022-08-07T11:47:10.972Z,12.75
2022-08-07T11:50:30.960Z,11.50
2022-08-07T11:52:53.438Z,15.75
2022-08-07T11:56:24.842Z,6.75
2022-08-07T11:58:18.520Z,14.75
2022-08-07T12:01:00.249Z,14.25
2022-08-07T12:03:46.760Z,16.75
2022-08-07T12:06:37.171Z,17.00
2022-08-07T12:09:16.826Z,18.75
2022-08-07T12:12:10.314Z,21.75
2022-08-07T12:14:51.433Z,20.50
2022-08-07T12:17:26.474Z,21.50
2022-08-07T12:20:18.540Z,23.00
2022-08-07T12:22:58.859Z,21.50
2022-08-07T12:26:03.132Z,20.00
2022-08-07T12:28:45.058Z,7.50
2022-08-07T12:31:17.246Z,13.25
2022-08-07T12:34:01.090Z,17.50
2022-08-07T12:36:32.902Z,16.75
2022-08-07T12:39:41.234Z,11.75
2022-08-07T12:41:53.300Z,16.00
2022-08-07T12:44:22.922Z,7.00
2022-08-07T12:46:58.955Z,16.00
2022-08-07T12:49:39.845Z,10.25
2022-08-07T12:52:23.358Z,6.50
2022-08-07T12:55:03.527Z,12.00
2022-08-07T12:58:00.273Z,10.75
2022-08-07T13:00:32.997Z,9.00
2022-08-07T13:03:26.919Z,9.50
2022-08-07T13:06:27.325Z,8.50
2022-08-07T13:09:01.358Z,8.75
2022-08-07T13:12:02.005Z,9.00
2022-08-07T13:14:33.587Z,6.75
2022-08-07T13:17:05.877Z,7.50
2022-08-07T13:19:50.968Z,12.00
2022-08-07T13:22:31.299Z,10.00
2022-08-07T13:25:02.755Z,6.25
2022-08-07T13:28:13.287Z,9.50
2022-08-07T13:30:39.847Z,11.00
2022-08-07T13:33:46.031Z,12.00
2022-08-07T13:36:05.738Z,9.50
2022-08-07T13:38:39.315Z,9.75
2022-08-07T13:41:17.852Z,9.25
2022-08-07T13:43:52.763Z,7.00
2022-08-07T13:46:32.761Z,7.00
2022-08-07T13:49:04.304Z,7.50
2022-08-07T13:52:05.535Z,9.25
2022-08-07T13:54:30.543Z,8.50
2022-08-07T13:57:08.616Z,7.00
2022-08-07T13:59:40.691Z,9.50
2022-08-07T14:02:19.723Z,4.50
2022-08-07T14:05:00.661Z,5.50
2022-08-07T14:07:31.606Z,8.75
2022-08-07T14:10:17.549Z,3.50
2022-08-07T14:12:55.807Z,4.25
2022-08-07T14:15:35.267Z,3.00
2022-08-07T14:18:23.416Z,5.75
2022-08-07T14:20:54.989Z,6.00
2022-08-07T14:23:58.810Z,4.00
2022-08-07T14:26:28.006Z,5.00
2022-08-07T14:29:08.754Z,7.50
2022-08-07T14:31:53.491Z,8.25
2022-08-07T14:34:29.971Z,5.00
2022-08-07T14:37:17.668Z,4.00
2022-08-07T14:40:16.512Z,10.50
2022-08-07T14:43:55.168Z,11.50
2022-08-07T14:45:47.101Z,10.50
2022-08-07T14:48:19.713Z,11.50
2022-08-07T14:50:50.955Z,10.00
2022-08-07T14:54:05.511Z,10.00
2022-08-07T14:56:13.069Z,9.00
2022-08-07T14:58:44.429Z,9.25
2022-08-07T15:01:22.043Z,9.75
2022-08-07T15:03:53.094Z,11.00
2022-08-07T15:06:25.203Z,8.00
2022-08-07T15:08:54.881Z,8.50
2022-08-07T15:11:53.514Z,9.50
2022-08-07T15:14:17.737Z,6.75
2022-08-07T15:16:55.251Z,6.75
2022-08-07T15:20:23.626Z,7.00
2022-08-07T15:22:22.118Z,8.00
2022-08-07T15:25:13.904Z,7.75
2022-08-07T15:28:33.071Z,9.00
2022-08-07T15:30:36.515Z,7.25
2022-08-07T15:33:33.433Z,7.50
2022-08-07T15:36:05.751Z,7.00
2022-08-07T15:38:51.243Z,7.25
2022-08-07T15:42:45.245Z,8.00
2022-08-07T15:44:15.459Z,8.50
2022-08-07T15:46:51.946Z,8.00
2022-08-07T15:50:04.377Z,10.25
2022-08-07T15:52:20.389Z,11.25
2022-08-07T15:54:49.666Z,11.00
2022-08-07T15:57:27.828Z,11.25
2022-08-07T16:00:08.748Z,10.75
2022-08-07T16:02:58.857Z,11.00
2022-08-07T16:05:31.345Z,10.00
2022-08-07T16:08:30.944Z,13.00
2022-08-07T16:10:56.409Z,9.50
2022-08-07T16:13:57.873Z,12.00
2022-08-07T16:16:49.869Z,11.00
2022-08-07T16:19:42.020Z,12.50
2022-08-07T16:22:36.794Z,16.00
2022-08-07T16:25:23.266Z,15.00
2022-08-07T16:27:59.496Z,16.25
2022-08-07T16:30:32.669Z,16.00
2022-08-07T16:34:06.224Z,16.00
2022-08-07T16:36:05.961Z,11.00
2022-08-07T16:38:59.972Z,16.25
2022-08-07T16:41:54.006Z,15.00
2022-08-07T16:45:04.127Z,17.00
2022-08-07T16:47:51.462Z,14.50
2022-08-07T16:50:37.047Z,15.50
2022-08-07T16:54:01.738Z,12.75
2022-08-07T16:56:15.150Z,12.25
2022-08-07T16:59:10.949Z,13.00
2022-08-07T17:01:49.658Z,10.00
2022-08-07T17:04:24.990Z,14.25
2022-08-07T17:07:03.280Z,13.25
2022-08-07T17:10:07.195Z,12.50
2022-08-07T17:12:45.271Z,14.25
2022-08-07T17:15:20.158Z,11.00
2022-08-07T17:17:54.559Z,12.00
2022-08-07T17:20:32.711Z,11.50
2022-08-07T17:23:08.547Z,12.50
2022-08-07T17:25:52.169Z,13.75
2022-08-07T17:28:31.272Z,15.25
2022-08-07T17:31:15.746Z,15.00
2022-08-07T17:34:15.188Z,16.00
2022-08-07T17:36:57.911Z,16.00
2022-08-07T17:39:58.850Z,18.75
2022-08-07T17:42:32.763Z,15.00
2022-08-07T17:45:15.132Z,14.00
2022-08-07T17:47:53.864Z,18.00
2022-08-07T17:50:30.590Z,15.50
2022-08-07T17:53:05.871Z,14.25
2022-08-07T17:56:01.305Z,14.75
2022-08-07T17:58:34.319Z,19.25
2022-08-07T18:01:20.797Z,11.00
2022-08-07T18:04:07.540Z,15.75
2022-08-07T18:06:39.247Z,15.25
2022-08-07T18:09:16.686Z,15.00
2022-08-07T18:12:16.539Z,13.25
2022-08-07T18:14:45.087Z,14.75
2022-08-07T18:18:39.729Z,17.75
2022-08-07T18:21:06.657Z,16.25
2022-08-07T18:23:41.921Z,14.50
2022-08-07T18:26:05.675Z,13.75
2022-08-07T18:28:58.562Z,13.25
2022-08-07T18:31:38.897Z,14.00
2022-08-07T18:34:34.838Z,15.50
2022-08-07T18:37:09.974Z,11.00
2022-08-07T18:40:08.131Z,14.75
2022-08-07T18:42:45.902Z,14.25
2022-08-07T18:45:43.048Z,14.00
2022-08-07T18:50:05.683Z,14.75
2022-08-07T18:51:07.329Z,14.00
2022-08-07T18:53:54.162Z,12.75
2022-08-07T18:56:34.023Z,14.50
2022-08-07T18:59:06.959Z,14.50
2022-08-07T19:02:31.780Z,12.75
2022-08-07T19:04:54.540Z,15.25
2022-08-07T19:07:34.520Z,15.25
2022-08-07T19:10:12.180Z,15.75
2022-08-07T19:12:57.978Z,12.00
2022-08-07T19:16:04.841Z,12.50
2022-08-07T19:18:35.006Z,16.25
2022-08-07T19:21:14.554Z,12.25
2022-08-07T19:24:01.484Z,14.50
2022-08-07T19:27:01.712Z,13.00
2022-08-07T19:31:00.065Z,15.75
2022-08-07T19:32:26.466Z,10.50
2022-08-07T19:35:01.597Z,12.50
2022-08-07T19:37:57.063Z,10.75
2022-08-07T19:40:31.324Z,12.50
2022-08-07T19:43:02.917Z,17.25
2022-08-07T19:46:06.266Z,15.00
2022-08-07T19:48:26.236Z,16.25
2022-08-07T19:50:57.597Z,17.33
2022-08-07T19:54:33.035Z,20.75
2022-08-07T19:57:51.849Z,19.00
2022-08-07T19:59:12.825Z,20.25
2022-08-07T20:01:52.787Z,16.00
2022-08-07T20:04:31.268Z,14.00
2022-08-07T20:07:09.130Z,13.75
2022-08-07T20:10:36.245Z,13.25
2022-08-07T20:12:34.716Z,16.00
2022-08-07T20:15:09.713Z,16.25
2022-08-07T20:17:45.949Z,16.00
2022-08-07T20:20:31.103Z,15.00
2022-08-07T20:23:23.191Z,15.25
2022-08-07T20:25:53.369Z,17.00
2022-08-07T20:28:29.942Z,12.00
2022-08-07T20:30:58.731Z,13.75
2022-08-07T20:33:37.488Z,16.00
2022-08-07T20:36:07.902Z,13.25
2022-08-07T20:39:00.111Z,16.25
2022-08-07T20:41:27.856Z,15.25
2022-08-07T20:44:04.609Z,13.00
2022-08-07T20:46:44.139Z,9.75
2022-08-07T20:50:00.583Z,14.00
2022-08-07T20:52:07.844Z,10.75
2022-08-07T20:54:53.028Z,14.25
2022-08-07T20:57:23.348Z,11.00
2022-08-07T21:00:08.144Z,12.50
2022-08-07T21:02:57.814Z,11.25
2022-08-07T21:05:54.363Z,16.50
2022-08-07T21:08:32.328Z,15.00
2022-08-07T21:11:10.842Z,15.50
2022-08-07T21:13:57.823Z,13.00
2022-08-07T21:16:34.739Z,16.75
2022-08-07T21:19:07.125Z,12.75
2022-08-07T21:21:57.170Z,11.75
2022-08-07T21:24:29.157Z,17.50
2022-08-07T21:27:02.201Z,13.75
2022-08-07T21:29:40.854Z,17.00
2022-08-07T21:32:46.897Z,18.00
2022-08-07T21:35:16.699Z,15.25
2022-08-07T21:38:05.337Z,15.25
2022-08-07T21:40:38.915Z,16.00
2022-08-07T21:43:12.116Z,17.75
2022-08-07T21:46:10.514Z,17.75
2022-08-07T21:48:42.451Z,16.25
2022-08-07T21:51:25.457Z,17.00
2022-08-07T21:53:54.685Z,17.25
2022-08-07T21:56:36.614Z,16.00
2022-08-07T21:59:22.769Z,17.25
2022-08-07T22:02:11.091Z,20.00
2022-08-07T22:04:52.599Z,18.00
2022-08-07T22:07:48.561Z,15.00
2022-08-07T22:10:13.057Z,19.00
2022-08-07T22:12:45.851Z,15.33
2022-08-07T22:16:43.878Z,18.50
2022-08-07T22:18:05.664Z,14.25
2022-08-07T22:20:43.053Z,16.25
2022-08-07T22:23:21.709Z,18.25
2022-08-07T22:25:58.052Z,21.75
2022-08-07T22:28:32.073Z,20.25
2022-08-07T22:31:04.973Z,19.25
2022-08-07T22:33:52.817Z,20.00
2022-08-07T22:36:27.990Z,11.50
2022-08-07T22:38:58.197Z,17.25
2022-08-07T22:42:03.667Z,18.50
2022-08-07T22:44:21.897Z,15.75
2022-08-07T22:47:06.501Z,14.25
2022-08-07T22:49:54.343Z,13.75
2022-08-07T22:52:53.041Z,13.25
2022-08-07T22:55:39.408Z,14.75
2022-08-07T22:58:29.133Z,14.25
2022-08-07T23:01:06.559Z,15.00
2022-08-07T23:03:58.862Z,14.25
2022-08-07T23:06:43.642Z,14.50
2022-08-07T23:10:05.219Z,12.75
2022-08-07T23:12:34.027Z,16.00
2022-08-07T23:15:12.500Z,16.00
2022-08-07T23:18:09.356Z,12.00
2022-08-07T23:20:55.032Z,18.75
2022-08-07T23:24:05.318Z,16.00
2022-08-07T23:26:25.317Z,16.00
2022-08-07T23:29:42.763Z,16.25
2022-08-07T23:34:20.021Z,12.75
2022-08-07T23:35:02.774Z,14.00
2022-08-07T23:38:01.620Z,17.00
2022-08-07T23:40:36.304Z,16.75
2022-08-07T23:43:37.722Z,14.00
2022-08-07T23:46:23.784Z,13.50
2022-08-07T23:49:15.149Z,15.25
2022-08-07T23:53:01.917Z,12.00
2022-08-07T23:54:46.223Z,9.25
2022-08-07T23:57:18.779Z,12.25
